Time;durP1;ratioP1;P1;durP2;ratioP2;P2;SDS_P1;SDS_P2;PMS_P1;PMS_P2;Temp;Humidity;BMP_temperature;BMP_pressure;BME280_temperature;BME280_humidity;BME280_pressure;Samples;Min_cycle;Max_cycle;Signal;HPM_P1;HPM_P2
2021/07/30 00:01:52;;;;;;;6.93;3.05;;;;;;;19.07;48.62;99275.56;6073439;23;20072;-83
2021/07/30 00:04:19;;;;;;;5.78;3.05;;;;;;;19.06;48.53;99275.72;6073937;23;20086;-83
2021/07/30 00:06:52;;;;;;;10.50;3.35;;;;;;;19.02;48.59;99275.16;6073744;23;20470;-83
2021/07/30 00:09:18;;;;;;;9.75;3.30;;;;;;;19.02;48.53;99275.16;6097571;23;20505;-83
2021/07/30 00:11:46;;;;;;;10.73;3.58;;;;;;;18.99;48.87;99270.13;6073074;23;20062;-87
2021/07/30 00:14:19;;;;;;;7.82;2.80;;;;;;;18.94;49.44;99270.59;6072888;23;20026;-87
2021/07/30 00:16:46;;;;;;;6.35;3.47;;;;;;;18.93;49.06;99270.75;6073140;23;20037;-88
2021/07/30 00:19:15;;;;;;;9.10;3.60;;;;;;;18.87;49.24;99265.03;6072887;23;20093;-88
2021/07/30 00:21:42;;;;;;;9.82;2.97;;;;;;;18.84;49.40;99265.34;6072846;23;20102;-88
2021/07/30 00:24:09;;;;;;;9.00;3.67;;;;;;;18.78;49.74;99262.44;6096726;23;20069;-88
2021/07/30 00:26:36;;;;;;;11.18;4.00;;;;;;;18.74;49.79;99264.59;6073624;23;20108;-87
2021/07/30 00:29:03;;;;;;;11.18;3.42;;;;;;;18.69;49.76;99266.88;6097513;23;20027;-88
2021/07/30 00:31:30;;;;;;;9.68;3.53;;;;;;;18.65;49.80;99262.84;6096710;23;20093;-88
2021/07/30 00:34:15;;;;;;;10.23;3.60;;;;;;;18.56;50.52;99267.25;6072809;23;20014;-88
2021/07/30 00:36:42;;;;;;;7.82;3.78;;;;;;;18.57;49.95;99263.59;6096875;23;20061;-88
2021/07/30 00:39:12;;;;;;;12.63;4.25;;;;;;;18.48;50.66;99252.03;6072964;23;20374;-88
2021/07/30 00:41:41;;;;;;;7.60;4.00;;;;;;;18.45;50.42;99254.97;6072814;23;20085;-88
2021/07/30 00:44:18;;;;;;;6.85;3.53;;;;;;;18.33;50.87;99262.34;6072576;23;20712;-88
2021/07/30 00:46:45;;;;;;;9.50;3.83;;;;;;;18.31;50.77;99254.50;6073070;23;20053;-88
2021/07/30 00:49:25;;;;;;;10.65;4.00;;;;;;;18.21;51.38;99256.41;6072954;23;20077;-88
2021/07/30 00:51:52;;;;;;;9.82;3.45;;;;;;;18.19;50.75;99259.22;6072849;23;20058;-87
2021/07/30 00:54:24;;;;;;;13.65;4.10;;;;;;;18.14;51.47;99257.97;6072491;23;20061;-88
2021/07/30 00:56:53;;;;;;;7.72;3.72;;;;;;;18.08;51.48;99260.25;6072535;23;20041;-87
2021/07/30 00:59:22;;;;;;;7.78;3.40;;;;;;;18.02;51.67;99258.16;6073183;23;20104;-88
2021/07/30 01:01:50;;;;;;;10.25;4.47;;;;;;;17.98;51.83;99256.75;6072880;23;20733;-86
2021/07/30 01:04:20;;;;;;;8.68;3.35;;;;;;;17.92;52.34;99252.91;6072482;23;20018;-88
2021/07/30 01:06:47;;;;;;;16.55;4.13;;;;;;;17.89;51.65;99263.81;6096573;23;20074;-79
2021/07/30 01:09:15;;;;;;;6.50;3.55;;;;;;;17.84;52.16;99258.13;6072351;23;20026;-79
2021/07/30 01:11:44;;;;;;;11.05;3.97;;;;;;;17.80;52.38;99259.41;6072804;23;20065;-79
2021/07/30 01:14:13;;;;;;;13.70;4.18;;;;;;;17.75;52.75;99264.31;6072355;23;20081;-83
2021/07/30 01:16:41;;;;;;;9.77;3.97;;;;;;;17.70;52.82;99270.06;6072741;23;20354;-79
2021/07/30 01:19:23;;;;;;;8.90;3.92;;;;;;;17.61;53.17;99263.81;6073123;23;20061;-79
2021/07/30 01:21:53;;;;;;;12.70;4.22;;;;;;;17.61;52.81;99260.31;6072962;23;20469;-79
2021/07/30 01:24:26;;;;;;;9.15;4.10;;;;;;;17.55;53.59;99254.59;6072472;23;20093;-79
2021/07/30 01:26:53;;;;;;;9.55;4.07;;;;;;;17.55;53.08;99254.59;6073023;23;20101;-79
2021/07/30 01:29:24;;;;;;;12.52;4.25;;;;;;;17.50;53.96;99262.16;6072468;23;20023;-79
2021/07/30 01:31:51;;;;;;;8.93;4.38;;;;;;;17.47;53.18;99262.44;6072497;23;20101;-79
2021/07/30 01:34:18;;;;;;;8.98;4.10;;;;;;;17.44;53.19;99257.41;6072280;23;20101;-79
2021/07/30 01:36:44;;;;;;;9.73;3.85;;;;;;;17.39;53.09;99257.84;6073011;23;20415;-79
2021/07/30 01:39:22;;;;;;;8.02;4.18;;;;;;;17.32;54.08;99243.44;6096642;23;20406;-79
2021/07/30 01:41:49;;;;;;;15.23;4.28;;;;;;;17.33;53.36;99245.13;6072424;23;20089;-79
2021/07/30 01:44:16;;;;;;;8.95;4.43;;;;;;;17.29;53.18;99239.25;6072248;23;20097;-79
2021/07/30 01:46:43;;;;;;;10.98;4.35;;;;;;;17.27;53.36;99243.88;6097982;23;20496;-79
2021/07/30 01:49:10;;;;;;;8.20;4.13;;;;;;;17.25;53.46;99245.00;6072424;23;20023;-79
2021/07/30 01:51:37;;;;;;;9.07;3.90;;;;;;;17.22;53.53;99247.94;6097598;23;20102;-79
2021/07/30 01:54:06;;;;;;;9.57;4.10;;;;;;;17.19;53.75;99243.75;6096927;23;20023;-79
2021/07/30 01:56:33;;;;;;;9.95;4.60;;;;;;;17.16;53.58;99244.88;6071604;23;20018;-79
2021/07/30 01:59:01;;;;;;;6.72;4.43;;;;;;;17.13;53.61;99244.31;6072309;23;20427;-79
2021/07/30 02:01:27;;;;;;;9.45;4.20;;;;;;;17.10;53.62;99237.47;6072556;23;20093;-79
2021/07/30 02:03:58;;;;;;;10.18;4.35;;;;;;;17.06;53.73;99242.25;6071683;23;20094;-79
2021/07/30 02:06:25;;;;;;;9.13;4.28;;;;;;;17.05;53.54;99243.22;6071997;23;20032;-79
2021/07/30 02:08:53;;;;;;;6.45;4.20;;;;;;;17.01;53.97;99236.47;6095718;23;20027;-88
2021/07/30 02:11:19;;;;;;;7.75;4.13;;;;;;;17.00;53.76;99239.25;6071921;23;20089;-88
2021/07/30 02:16:47;;;;;;;10.40;4.05;;;;;;;16.94;53.75;99233.53;6049623;23;20018;-80
2021/07/30 02:19:16;;;;;;;6.35;3.95;;;;;;;16.91;53.82;99233.84;6071837;23;20338;-79
2021/07/30 02:21:52;;;;;;;10.13;4.43;;;;;;;16.87;54.22;99234.25;6071664;23;20028;-79
2021/07/30 02:24:19;;;;;;;6.97;3.80;;;;;;;16.85;53.93;99234.41;6071277;23;20129;-79
2021/07/30 02:26:47;;;;;;;10.38;4.43;;;;;;;16.82;54.04;99236.50;6071870;23;20022;-83
2021/07/30 02:29:13;;;;;;;6.97;4.15;;;;;;;16.78;53.98;99247.41;6072271;23;20049;-83
2021/07/30 02:31:42;;;;;;;7.25;4.20;;;;;;;16.73;54.33;99235.50;6097352;23;20022;-81
2021/07/30 02:34:09;;;;;;;11.95;4.40;;;;;;;16.72;54.15;99249.78;6071496;23;20023;-81
2021/07/30 02:36:41;;;;;;;8.55;4.40;;;;;;;16.68;54.04;99242.09;6072331;23;20088;-80
2021/07/30 02:39:07;;;;;;;8.65;4.68;;;;;;;16.67;54.31;99240.41;6096989;23;20106;-83
2021/07/30 02:41:36;;;;;;;11.45;4.03;;;;;;;16.64;54.42;99250.50;6072344;23;20050;-84
2021/07/30 02:44:03;;;;;;;10.52;4.65;;;;;;;16.63;54.38;99241.69;6097431;23;20089;-87
2021/07/30 02:46:30;;;;;;;10.50;4.45;;;;;;;16.61;54.37;99243.66;6072277;23;20022;-88
2021/07/30 02:48:58;;;;;;;16.60;4.25;;;;;;;16.59;54.60;99242.94;6095304;23;20079;-88
2021/07/30 02:51:25;;;;;;;9.00;4.43;;;;;;;16.57;54.57;99244.91;6071798;23;20050;-88
2021/07/30 02:53:54;;;;;;;9.93;4.45;;;;;;;16.56;54.74;99237.06;6071735;23;20454;-88
2021/07/30 02:56:21;;;;;;;7.05;4.30;;;;;;;16.54;54.55;99238.06;6072055;23;20023;-83
2021/07/30 02:58:47;;;;;;;9.05;4.95;;;;;;;16.53;54.69;99243.50;6071905;23;20123;-83
2021/07/30 03:01:14;;;;;;;9.45;4.80;;;;;;;16.50;54.68;99238.44;6071296;23;20033;-88
2021/07/30 03:03:41;;;;;;;8.00;4.93;;;;;;;16.48;54.78;99237.78;6070834;23;20022;-88
2021/07/30 03:06:09;;;;;;;7.97;4.00;;;;;;;16.42;54.98;99234.66;6071430;23;20109;-81
2021/07/30 03:08:37;;;;;;;9.95;4.75;;;;;;;16.40;54.86;99230.47;6072031;23;20058;-83
2021/07/30 03:11:04;;;;;;;8.85;4.88;;;;;;;16.36;54.89;99226.41;6072048;23;20105;-83
2021/07/30 03:13:32;;;;;;;12.68;4.53;;;;;;;16.33;55.29;99227.53;6071738;23;20037;-83
2021/07/30 03:16:00;;;;;;;8.38;4.22;;;;;;;16.30;55.41;99219.84;6095304;23;20386;-88
2021/07/30 03:18:27;;;;;;;9.23;4.70;;;;;;;16.30;55.03;99230.47;6095993;23;20018;-83
2021/07/30 03:20:54;;;;;;;8.38;3.88;;;;;;;16.28;55.18;99230.63;6074225;23;20058;-84
2021/07/30 03:23:37;;;;;;;10.25;4.80;;;;;;;16.24;55.75;99228.34;6073785;23;20477;-79
2021/07/30 03:26:04;;;;;;;8.27;4.68;;;;;;;16.26;55.22;99221.94;6073615;23;20093;-79
2021/07/30 03:28:31;;;;;;;8.30;4.13;;;;;;;16.24;55.25;99229.22;6073798;23;20097;-79
2021/07/30 03:30:59;;;;;;;6.78;4.65;;;;;;;16.22;55.40;99223.19;6074065;23;20058;-79
2021/07/30 03:33:27;;;;;;;8.43;4.30;;;;;;;16.20;55.48;99222.50;6074047;23;20026;-79
2021/07/30 03:35:55;;;;;;;9.43;4.93;;;;;;;16.19;55.47;99226.13;6073901;23;20019;-79
2021/07/30 03:38:22;;;;;;;8.27;4.70;;;;;;;16.16;55.51;99221.09;6073721;23;20106;-79
2021/07/30 03:40:48;;;;;;;11.63;5.20;;;;;;;16.15;55.66;99222.88;6097935;23;20061;-79
2021/07/30 03:43:20;;;;;;;8.88;4.82;;;;;;;16.11;56.23;99215.34;6097485;23;20101;-79
2021/07/30 03:45:47;;;;;;;9.25;4.65;;;;;;;16.11;55.76;99213.53;6073672;23;20027;-79
2021/07/30 03:48:15;;;;;;;10.27;5.18;;;;;;;16.10;55.87;99218.97;6074438;23;20026;-79
2021/07/30 03:50:41;;;;;;;8.95;4.78;;;;;;;16.10;55.94;99213.66;6073414;23;20101;-79
2021/07/30 03:53:08;;;;;;;12.20;5.30;;;;;;;16.08;55.82;99211.16;6073970;23;20093;-79
2021/07/30 03:55:35;;;;;;;14.05;4.90;;;;;;;16.07;55.97;99214.75;6097033;23;20094;-79
2021/07/30 03:58:03;;;;;;;14.05;4.80;;;;;;;16.07;56.14;99208.63;6098448;23;20018;-78
2021/07/30 04:00:29;;;;;;;8.80;4.60;;;;;;;16.07;56.09;99206.81;6073021;23;20029;-79
2021/07/30 04:03:01;;;;;;;9.50;4.80;;;;;;;16.05;56.71;99210.56;6073419;23;20089;-83
2021/07/30 04:05:28;;;;;;;11.57;4.85;;;;;;;16.07;56.34;99208.63;6073733;23;20069;-83
2021/07/30 04:08:20;;;;;;;9.02;5.13;;;;;;;16.04;57.16;99214.22;6073370;23;20101;-83
2021/07/30 04:10:47;;;;;;;9.02;5.07;;;;;;;16.08;56.22;99210.31;6073730;23;20514;-83
2021/07/30 04:13:24;;;;;;;8.38;4.95;;;;;;;16.04;57.03;99216.88;6074333;23;20379;-88
2021/07/30 04:15:53;;;;;;;10.68;4.82;;;;;;;16.05;56.92;99215.88;6073102;23;20089;-88
2021/07/30 04:18:20;;;;;;;12.15;5.00;;;;;;;16.05;56.66;99208.78;6073378;23;20037;-87
2021/07/30 04:20:49;;;;;;;11.55;5.35;;;;;;;16.06;56.94;99214.91;6098715;23;20125;-80
2021/07/30 04:23:16;;;;;;;8.35;5.00;;;;;;;16.07;56.66;99208.63;6096888;23;20030;-79
2021/07/30 04:25:42;;;;;;;14.95;5.72;;;;;;;16.06;56.77;99209.59;6096500;23;20085;-79
2021/07/30 04:28:10;;;;;;;6.78;4.55;;;;;;;16.07;56.84;99217.44;6073136;23;20421;-79
2021/07/30 04:30:37;;;;;;;8.82;4.78;;;;;;;16.09;56.92;99210.19;6072471;23;20057;-87
2021/07/30 04:33:07;;;;;;;8.25;5.10;;;;;;;16.12;57.11;99209.06;6098812;23;20097;-83
2021/07/30 04:35:35;;;;;;;9.85;5.22;;;;;;;16.14;57.00;99210.59;6073043;23;20030;-83
2021/07/30 04:38:04;;;;;;;8.55;4.95;;;;;;;16.17;57.44;99217.44;6073364;23;20034;-87
2021/07/30 04:40:31;;;;;;;10.90;5.22;;;;;;;16.20;56.92;99225.16;6072834;23;20090;-88
2021/07/30 04:42:58;;;;;;;10.18;5.13;;;;;;;16.22;56.96;99225.00;6073071;23;20398;-87
2021/07/30 04:45:27;;;;;;;9.98;4.57;;;;;;;16.23;57.14;99227.50;6073404;23;20395;-84
2021/07/30 04:48:08;;;;;;;8.60;5.22;;;;;;;16.25;57.00;99222.91;6073458;23;20061;-83
2021/07/30 04:50:53;;;;;;;11.93;5.07;;;;;;;16.31;56.97;99215.38;6071238;23;20026;-88
2021/07/30 04:53:22;;;;;;;10.63;5.20;;;;;;;16.32;57.20;99217.88;6073276;23;20453;-87
2021/07/30 04:55:48;;;;;;;13.68;5.00;;;;;;;16.37;56.91;99222.81;6072620;23;20101;-88
2021/07/30 04:58:22;;;;;;;9.43;5.25;;;;;;;16.37;57.27;99213.00;6098043;23;20105;-87
2021/07/30 05:00:49;;;;;;;8.45;5.00;;;;;;;16.44;56.82;99210.63;6073438;23;20097;-88
2021/07/30 05:03:33;;;;;;;7.88;4.88;;;;;;;16.41;56.92;99210.91;6072981;23;20047;-87
2021/07/30 05:06:00;;;;;;;9.90;4.70;;;;;;;16.50;56.78;99214.53;6073408;23;20022;-87
2021/07/30 05:08:31;;;;;;;8.40;4.82;;;;;;;16.49;57.26;99208.38;6072532;23;20022;-88
2021/07/30 05:10:58;;;;;;;11.88;5.13;;;;;;;16.53;56.68;99212.44;6072902;23;20066;-88
2021/07/30 05:13:25;;;;;;;8.07;5.00;;;;;;;16.57;56.87;99214.81;6072766;23;20027;-88
2021/07/30 05:16:09;;;;;;;11.10;4.55;;;;;;;16.56;57.01;99213.16;6072747;23;20078;-88
2021/07/30 05:18:43;;;;;;;9.88;4.90;;;;;;;16.61;57.14;99209.09;6098169;23;20033;-87
2021/07/30 05:21:14;;;;;;;9.00;4.47;;;;;;;16.68;56.98;99206.72;6072524;23;20110;-88
2021/07/30 05:23:42;;;;;;;13.70;5.47;;;;;;;16.74;56.89;99213.28;6072758;23;20093;-87
2021/07/30 05:26:23;;;;;;;7.78;4.60;;;;;;;16.76;57.14;99206.84;6073103;23;20447;-88
2021/07/30 05:28:50;;;;;;;8.10;4.18;;;;;;;16.87;56.80;99215.66;6096817;23;20097;-88
2021/07/30 05:31:22;;;;;;;10.73;5.03;;;;;;;16.90;57.13;99207.41;6072615;23;20089;-88
2021/07/30 05:33:49;;;;;;;8.05;4.50;;;;;;;16.98;56.74;99207.53;6072889;23;20026;-87
2021/07/30 05:36:20;;;;;;;7.97;4.50;;;;;;;17.05;57.10;99207.81;6072589;23;20101;-88
2021/07/30 05:38:47;;;;;;;13.00;5.30;;;;;;;17.13;56.58;99207.09;6072453;23;20084;-87
2021/07/30 05:44:29;;;;;;;6.13;4.28;;;;;;;17.30;56.44;99195.72;6097413;23;20073;-88
2021/07/30 05:47:17;;;;;;;9.63;4.50;;;;;;;17.31;56.21;99197.38;6072781;23;20054;-87
2021/07/30 05:50:00;;;;;;;9.02;4.50;;;;;;;17.37;56.28;99195.97;6072792;23;20026;-87
2021/07/30 05:52:27;;;;;;;8.52;4.85;;;;;;;17.46;56.17;99199.59;6096080;23;20093;-87
2021/07/30 05:55:02;;;;;;;13.10;4.88;;;;;;;17.48;56.28;99194.94;6072154;23;20022;-87
2021/07/30 05:57:32;;;;;;;7.70;4.57;;;;;;;17.54;56.37;99193.53;6096101;23;20109;-87
2021/07/30 06:00:09;;;;;;;9.13;4.55;;;;;;;17.55;56.28;99200.50;6072354;23;20529;-87
2021/07/30 06:02:36;;;;;;;7.07;4.32;;;;;;;17.61;56.16;99189.31;6072761;23;20073;-88
2021/07/30 06:05:04;;;;;;;11.63;5.00;;;;;;;17.67;56.22;99194.03;6072319;23;20027;-88
2021/07/30 06:07:35;;;;;;;10.25;4.70;;;;;;;17.71;56.30;99191.88;6072222;23;20046;-87
2021/07/30 06:10:06;;;;;;;12.00;4.55;;;;;;;17.78;56.25;99200.13;6072308;23;20037;-84
2021/07/30 06:12:32;;;;;;;8.60;4.45;;;;;;;17.84;56.14;99195.03;6072087;23;20030;-87
2021/07/30 06:15:03;;;;;;;9.80;4.72;;;;;;;17.90;56.05;99192.78;6096030;23;20346;-87
2021/07/30 06:17:30;;;;;;;9.45;4.50;;;;;;;17.96;55.79;99186.84;6071649;23;20105;-86
2021/07/30 06:20:02;;;;;;;9.57;4.65;;;;;;;17.98;56.10;99176.88;6071867;23;20037;-87
2021/07/30 06:22:32;;;;;;;8.32;4.07;;;;;;;18.05;56.13;99185.94;6072770;23;20066;-87
2021/07/30 06:25:07;;;;;;;8.82;4.43;;;;;;;18.07;55.73;99186.66;6071994;23;20019;-88
2021/07/30 06:27:34;;;;;;;11.48;4.90;;;;;;;18.16;55.65;99184.09;6072697;23;20080;-86
2021/07/30 06:30:08;;;;;;;7.68;4.10;;;;;;;18.19;55.81;99183.78;6072451;23;20037;-86
2021/07/30 06:32:38;;;;;;;8.80;4.55;;;;;;;18.23;55.75;99186.00;6072760;23;20022;-87
2021/07/30 06:35:06;;;;;;;10.02;4.63;;;;;;;18.27;55.63;99189.19;6072268;23;20022;-87
2021/07/30 06:37:34;;;;;;;10.63;4.68;;;;;;;18.31;55.51;99189.72;6072105;23;20097;-87
2021/07/30 06:40:04;;;;;;;10.15;4.78;;;;;;;18.31;55.60;99187.06;6071958;23;20030;-87
2021/07/30 06:42:32;;;;;;;8.05;4.50;;;;;;;18.35;55.74;99191.94;6097392;23;20026;-87
2021/07/30 06:45:15;;;;;;;10.13;4.53;;;;;;;18.35;55.72;99194.59;6072408;23;20480;-87
2021/07/30 06:47:42;;;;;;;16.30;4.95;;;;;;;18.45;55.71;99193.69;6072513;23;20026;-87
2021/07/30 06:50:11;;;;;;;14.60;5.05;;;;;;;18.51;55.69;99182.44;6071714;23;20101;-87
2021/07/30 06:52:38;;;;;;;9.65;4.47;;;;;;;18.61;55.53;99190.31;6071672;23;20391;-87
2021/07/30 06:55:05;;;;;;;9.05;4.25;;;;;;;18.70;56.31;99191.25;6074445;23;20394;-87
2021/07/30 06:57:32;;;;;;;9.80;4.47;;;;;;;18.80;56.06;99189.31;6098895;23;20061;-87
2021/07/30 07:00:00;;;;;;;11.68;4.85;;;;;;;18.92;55.61;99187.25;6075279;23;20029;-83
2021/07/30 07:02:26;;;;;;;10.05;4.20;;;;;;;19.03;55.41;99183.50;6100352;23;20109;-83
2021/07/30 07:04:55;;;;;;;10.13;4.78;;;;;;;19.12;55.30;99187.06;6075457;23;20034;-82
2021/07/30 07:07:22;;;;;;;11.27;4.78;;;;;;;19.23;55.00;99183.28;6074908;23;20066;-82
2021/07/30 07:10:08;;;;;;;9.07;4.72;;;;;;;19.25;54.67;99187.47;6074943;23;20117;-82
2021/07/30 07:12:37;;;;;;;9.48;4.68;;;;;;;19.36;55.02;99181.03;6074636;23;20095;-82
2021/07/30 07:15:04;;;;;;;11.45;4.25;;;;;;;19.45;54.87;99181.91;6075035;23;20023;-82
2021/07/30 07:17:40;;;;;;;10.38;5.18;;;;;;;19.51;54.89;99185.78;6074916;23;20411;-82
2021/07/30 07:20:07;;;;;;;10.02;4.30;;;;;;;19.60;54.86;99179.47;6099960;23;20025;-82
2021/07/30 07:22:39;;;;;;;15.30;5.68;;;;;;;19.67;54.34;99175.16;6074982;23;20053;-82
2021/07/30 07:25:06;;;;;;;8.93;4.57;;;;;;;19.77;54.68;99182.19;6075331;23;20732;-81
2021/07/30 07:27:46;;;;;;;14.18;4.55;;;;;;;19.79;54.25;99188.22;6074651;23;20114;-82
2021/07/30 07:30:13;;;;;;;8.10;4.40;;;;;;;19.90;54.27;99181.75;6098611;23;20032;-82
2021/07/30 07:32:47;;;;;;;12.90;5.03;;;;;;;19.94;54.96;99191.09;6075128;23;20026;-82
2021/07/30 07:35:14;;;;;;;12.98;4.75;;;;;;;20.04;55.03;99180.31;6074391;23;20069;-81
2021/07/30 07:37:44;;;;;;;9.40;4.57;;;;;;;20.13;54.50;99181.16;6099635;23;20032;-82
2021/07/30 07:40:17;;;;;;;11.25;4.68;;;;;;;20.21;54.20;99185.66;6075071;23;20354;-82
2021/07/30 07:42:44;;;;;;;9.80;4.40;;;;;;;20.31;54.15;99175.66;6098331;23;20022;-86
2021/07/30 07:45:11;;;;;;;10.30;4.00;;;;;;;20.42;54.03;99171.84;6074713;23;20101;-81
2021/07/30 07:47:57;;;;;;;10.65;4.47;;;;;;;20.50;53.74;99168.31;6080293;23;20032;-83
2021/07/30 07:50:24;;;;;;;7.82;3.92;;;;;;;20.61;54.29;99162.66;6075038;23;20105;-83
2021/07/30 07:52:56;;;;;;;10.07;4.57;;;;;;;20.70;53.82;99163.47;6075006;23;20461;-83
2021/07/30 07:55:22;;;;;;;10.45;4.70;;;;;;;20.83;53.90;99161.09;6074987;23;20138;-83
2021/07/30 07:57:49;;;;;;;9.10;4.60;;;;;;;20.93;53.32;99157.47;6075047;23;20030;-83
2021/07/30 08:00:16;;;;;;;10.35;4.28;;;;;;;21.02;53.32;99161.81;6074936;23;20064;-83
2021/07/30 08:02:43;;;;;;;10.02;4.00;;;;;;;21.09;52.98;99154.75;6100557;23;20124;-83
2021/07/30 08:05:11;;;;;;;8.70;4.07;;;;;;;21.18;52.41;99158.25;6099494;23;20022;-84
2021/07/30 08:07:38;;;;;;;10.02;3.70;;;;;;;21.24;52.57;99154.06;6073262;23;20102;-83
2021/07/30 08:10:11;;;;;;;8.60;3.55;;;;;;;21.30;51.93;99165.91;6097542;23;20101;-84
2021/07/30 08:12:37;;;;;;;13.18;4.32;;;;;;;21.39;52.56;99159.53;6073470;23;20058;-83
2021/07/30 08:15:06;;;;;;;8.35;3.90;;;;;;;21.47;52.27;99164.00;6073231;23;20102;-83
2021/07/30 08:17:37;;;;;;;8.95;3.72;;;;;;;21.54;51.45;99164.97;6073798;23;20072;-83
2021/07/30 08:20:07;;;;;;;8.90;3.50;;;;;;;21.63;51.49;99168.44;6073306;23;20029;-83
2021/07/30 08:22:34;;;;;;;8.50;3.33;;;;;;;21.71;51.53;99162.22;6073287;23;20101;-83
2021/07/30 08:25:03;;;;;;;10.60;3.33;;;;;;;21.79;51.01;99161.38;6073178;23;20022;-83
2021/07/30 08:27:30;;;;;;;6.40;2.92;;;;;;;21.86;50.88;99152.47;6073192;23;20093;-83
2021/07/30 08:30:04;;;;;;;6.65;3.40;;;;;;;21.92;50.86;99153.59;6073519;23;20045;-84
2021/07/30 08:32:30;;;;;;;10.55;3.53;;;;;;;22.02;51.08;99147.19;6073133;23;20105;-83
2021/07/30 08:35:01;;;;;;;6.57;3.20;;;;;;;22.08;50.06;99159.84;6073319;23;20480;-83
2021/07/30 08:37:28;;;;;;;6.78;3.42;;;;;;;22.16;49.96;99161.66;6073169;23;20110;-83
2021/07/30 08:40:06;;;;;;;8.15;3.10;;;;;;;22.18;49.96;99165.84;6073531;23;20034;-84
2021/07/30 08:42:37;;;;;;;8.18;3.17;;;;;;;22.26;49.33;99167.63;6073025;23;20101;-83
2021/07/30 08:45:05;;;;;;;8.18;2.95;;;;;;;22.32;50.30;99161.53;6072971;23;20027;-84
2021/07/30 08:47:38;;;;;;;8.75;3.22;;;;;;;22.36;49.95;99162.84;6072959;23;20505;-83
2021/07/30 08:50:05;;;;;;;12.15;3.97;;;;;;;22.46;50.32;99149.19;6073092;23;20023;-83
2021/07/30 08:52:42;;;;;;;5.70;2.80;;;;;;;22.52;49.50;99153.84;6073000;23;20105;-84
2021/07/30 08:55:09;;;;;;;8.35;3.35;;;;;;;22.65;49.82;99158.63;6072896;23;20101;-84
2021/07/30 08:57:41;;;;;;;7.22;3.38;;;;;;;22.73;49.78;99157.69;6073211;23;20037;-84
2021/07/30 09:00:12;;;;;;;9.20;2.85;;;;;;;22.86;50.17;99156.25;6072970;23;20065;-84
2021/07/30 09:02:40;;;;;;;7.93;3.45;;;;;;;22.97;49.77;99163.84;6072904;23;20097;-83
2021/07/30 09:05:34;;;;;;;6.57;2.78;;;;;;;23.05;48.93;99157.56;6073263;23;20027;-83
2021/07/30 09:08:04;;;;;;;10.00;3.47;;;;;;;23.20;48.81;99160.25;6072804;23;20353;-83
2021/07/30 09:10:43;;;;;;;7.65;2.92;;;;;;;23.26;47.85;99162.22;6073304;23;20109;-83
2021/07/30 09:13:22;;;;;;;7.53;2.88;;;;;;;23.34;48.62;99153.25;6072931;23;20030;-82
2021/07/30 09:16:20;;;;;;;6.22;3.35;;;;;;;23.38;48.37;99141.13;6096664;23;20109;-83
2021/07/30 09:18:47;;;;;;;7.97;3.25;;;;;;;23.51;48.42;99148.50;6072736;23;20037;-83
2021/07/30 09:21:36;;;;;;;6.47;3.13;;;;;;;23.55;48.51;99144.44;6072801;23;20105;-83
2021/07/30 09:24:05;;;;;;;7.22;3.15;;;;;;;23.68;48.32;99140.22;6072502;23;20109;-83
2021/07/30 09:26:33;;;;;;;8.23;3.20;;;;;;;23.79;47.98;99138.91;6072787;23;20101;-83
2021/07/30 09:29:22;;;;;;;6.70;2.95;;;;;;;23.87;46.49;99140.66;6073035;23;20030;-83
2021/07/30 09:31:50;;;;;;;8.85;3.10;;;;;;;23.95;46.90;99138.69;6096959;23;20322;-83
2021/07/30 09:34:38;;;;;;;5.22;2.78;;;;;;;23.97;46.56;99135.81;6072877;23;20050;-83
2021/07/30 09:37:16;;;;;;;6.20;2.75;;;;;;;24.06;47.31;99123.06;6073188;23;20105;-83
2021/07/30 09:39:45;;;;;;;6.72;2.70;;;;;;;24.13;46.92;99117.78;6098111;23;20106;-83
2021/07/30 09:42:41;;;;;;;7.05;3.50;;;;;;;24.17;47.23;99119.06;6072854;23;20022;-83
2021/07/30 09:45:13;;;;;;;7.55;2.75;;;;;;;24.30;47.29;99121.06;6067485;23;20460;-83
2021/07/30 09:47:51;;;;;;;9.10;2.45;;;;;;;24.34;45.62;99120.44;6072359;23;20053;-82
2021/07/30 09:50:21;;;;;;;5.85;2.55;;;;;;;24.47;46.76;99108.16;6096274;23;20022;-83
2021/07/30 09:52:51;;;;;;;7.50;2.60;;;;;;;24.54;45.91;99110.88;6096763;23;20105;-83
2021/07/30 09:55:21;;;;;;;5.60;2.65;;;;;;;24.65;47.01;99101.44;6072084;23;20483;-83
2021/07/30 09:57:51;;;;;;;4.32;2.40;;;;;;;24.73;45.48;99109.38;6072443;23;20026;-83
2021/07/30 10:00:20;;;;;;;5.65;2.85;;;;;;;24.84;45.19;99108.88;6072387;23;20105;-83
2021/07/30 10:02:53;;;;;;;5.85;2.40;;;;;;;24.90;44.86;99101.88;6072881;23;20037;-83
2021/07/30 10:05:20;;;;;;;4.75;2.15;;;;;;;24.98;45.15;99098.19;6072320;23;20034;-83
2021/07/30 10:07:59;;;;;;;9.93;2.90;;;;;;;25.02;45.52;99082.44;6095981;23;20029;-83
2021/07/30 10:10:28;;;;;;;8.27;2.40;;;;;;;25.13;44.57;99094.50;6072590;23;20485;-83
2021/07/30 10:13:13;;;;;;;4.35;2.22;;;;;;;25.19;44.97;99099.13;6072758;23;20349;-83
2021/07/30 10:15:43;;;;;;;5.70;2.58;;;;;;;25.33;44.76;99092.75;6071960;23;20113;-83
2021/07/30 10:18:19;;;;;;;7.00;2.38;;;;;;;25.38;43.92;99082.19;6072675;23;20034;-83
2021/07/30 10:20:46;;;;;;;7.63;2.30;;;;;;;25.51;44.80;99080.59;6072279;23;20018;-83
2021/07/30 10:23:18;;;;;;;4.72;2.45;;;;;;;25.57;44.65;99078.97;6096000;23;20022;-84
2021/07/30 10:25:52;;;;;;;4.05;2.13;;;;;;;25.66;43.44;99076.91;6071947;23;20030;-83
2021/07/30 10:28:34;;;;;;;7.00;2.17;;;;;;;25.74;44.07;99084.81;6071846;23;20093;-83
2021/07/30 10:31:05;;;;;;;5.22;1.90;;;;;;;25.85;43.24;99070.75;6072588;23;20026;-83
2021/07/30 10:33:38;;;;;;;2.97;1.80;;;;;;;25.89;43.37;99065.78;6072360;23;20029;-83
2021/07/30 10:36:08;;;;;;;;;;;;;;;25.96;45.09;99068.47;6096863;23;20469;-83
2021/07/30 10:38:36;;;;;;;5.43;1.80;;;;;;;26.10;43.99;99062.06;6072117;23;19992;-84
2021/07/30 10:41:09;;;;;;;3.83;1.80;;;;;;;26.18;43.25;99060.19;6072354;23;20098;-84
2021/07/30 10:44:04;;;;;;;4.10;2.10;;;;;;;26.27;43.89;99061.66;6096676;23;20554;-84
2021/07/30 10:46:31;;;;;;;5.03;1.90;;;;;;;26.47;42.97;99055.44;6071737;23;20101;-84
2021/07/30 10:48:58;;;;;;;5.05;1.73;;;;;;;26.60;43.27;99060.81;6096254;23;20087;-84
2021/07/30 10:51:37;;;;;;;5.45;2.35;;;;;;;26.69;41.96;99045.25;6071932;23;20019;-84
2021/07/30 10:54:05;;;;;;;4.32;1.90;;;;;;;26.83;41.53;99062.22;6072126;23;20114;-84
2021/07/30 10:56:33;;;;;;;6.38;1.80;;;;;;;26.88;41.73;99051.59;6072230;23;20068;-84
2021/07/30 10:59:01;;;;;;;2.40;1.75;;;;;;;26.95;42.05;99051.63;6095847;23;20113;-84
2021/07/30 11:01:29;;;;;;;8.57;1.90;;;;;;;26.99;40.55;99049.34;6095881;23;20083;-84
2021/07/30 11:03:58;;;;;;;3.65;1.63;;;;;;;26.98;40.80;99045.78;6095763;23;20036;-84
2021/07/30 11:06:43;;;;;;;3.85;1.70;;;;;;;26.91;39.72;99044.97;6096243;23;20022;-84
2021/07/30 11:09:16;;;;;;;6.18;1.80;;;;;;;27.00;41.31;99041.03;6072240;23;20027;-84
2021/07/30 11:11:49;;;;;;;5.65;1.77;;;;;;;27.14;40.76;99049.06;6067385;23;20505;-84
2021/07/30 11:14:36;;;;;;;10.37;2.97;;;;;;;27.26;40.96;99039.25;6072319;23;20034;-84
2021/07/30 11:17:08;;;;;;;5.88;2.20;;;;;;;27.39;39.74;99035.63;6071877;23;20051;-84
2021/07/30 11:19:39;;;;;;;4.57;1.80;;;;;;;27.39;39.21;99040.22;6072377;23;20026;-84
2021/07/30 11:22:09;;;;;;;5.10;2.10;;;;;;;27.38;39.75;99034.00;6072233;23;20101;-84
2021/07/30 11:24:42;;;;;;;2.55;1.52;;;;;;;27.38;40.10;99035.84;6071818;23;20033;-84
2021/07/30 11:27:10;;;;;;;4.78;1.55;;;;;;;27.38;39.61;99033.16;6071939;23;20058;-84
2021/07/30 11:29:37;;;;;;;5.45;1.95;;;;;;;27.36;39.10;99032.53;6072466;23;20030;-84
2021/07/30 11:32:06;;;;;;;3.70;1.45;;;;;;;27.39;40.61;99037.53;6072105;23;20039;-84
2021/07/30 11:34:51;;;;;;;3.22;1.50;;;;;;;27.54;39.91;99032.63;6072126;23;20030;-84
2021/07/30 11:37:24;;;;;;;2.67;1.70;;;;;;;27.87;39.97;99017.28;6071846;23;20018;-84
2021/07/30 11:39:54;;;;;;;4.07;1.63;;;;;;;28.20;39.87;99034.28;5986316;23;20152;-84
2021/07/30 11:42:30;;;;;;;7.35;2.45;;;;;;;28.44;39.47;99029.09;5987320;23;20395;-84
2021/07/30 11:45:07;;;;;;;4.70;1.58;;;;;;;28.57;38.84;99022.72;5986955;23;20106;-84
2021/07/30 11:47:45;;;;;;;6.47;1.75;;;;;;;28.70;38.83;99016.34;5987225;23;20068;-84
2021/07/30 11:50:17;;;;;;;3.60;1.90;;;;;;;28.89;38.62;99022.56;5987425;23;20114;-84
2021/07/30 11:53:04;;;;;;;4.07;1.53;;;;;;;28.98;38.08;99018.53;5987222;23;20063;-84
2021/07/30 11:55:30;;;;;;;3.00;1.88;;;;;;;29.15;37.70;99015.19;5987076;23;20335;-84